sensor_id;sensor_type;location;lat;lon;timestamp;P1;durP1;ratioP1;P2;durP2;ratioP2
80539;SDS011;69869;48.036;15.780;2023-10-08T00:01:07;5.03;;;2.10;;
80539;SDS011;69869;48.036;15.780;2023-10-08T00:03:39;3.63;;;2.00;;
80539;SDS011;69869;48.036;15.780;2023-10-08T00:06:06;2.83;;;1.77;;
80539;SDS011;69869;48.036;15.780;2023-10-08T00:08:35;2.60;;;2.15;;
80539;SDS011;69869;48.036;15.780;2023-10-08T00:11:00;2.30;;;1.95;;
80539;SDS011;69869;48.036;15.780;2023-10-08T00:13:35;2.92;;;2.15;;
80539;SDS011;69869;48.036;15.780;2023-10-08T00:16:05;3.33;;;2.30;;
80539;SDS011;69869;48.036;15.780;2023-10-08T00:18:35;2.40;;;1.90;;
80539;SDS011;69869;48.036;15.780;2023-10-08T00:21:03;3.20;;;2.03;;
80539;SDS011;69869;48.036;15.780;2023-10-08T00:23:35;2.47;;;1.95;;
80539;SDS011;69869;48.036;15.780;2023-10-08T00:26:06;3.00;;;2.20;;
80539;SDS011;69869;48.036;15.780;2023-10-08T00:28:35;2.33;;;2.00;;
80539;SDS011;69869;48.036;15.780;2023-10-08T00:31:01;3.38;;;1.85;;
80539;SDS011;69869;48.036;15.780;2023-10-08T00:33:38;2.05;;;1.80;;
80539;SDS011;69869;48.036;15.780;2023-10-08T00:36:04;2.83;;;2.00;;
80539;SDS011;69869;48.036;15.780;2023-10-08T00:38:42;2.45;;;2.03;;
80539;SDS011;69869;48.036;15.780;2023-10-08T00:41:15;2.45;;;1.92;;
80539;SDS011;69869;48.036;15.780;2023-10-08T00:43:42;1.92;;;1.73;;
80539;SDS011;69869;48.036;15.780;2023-10-08T00:46:10;2.47;;;2.00;;
80539;SDS011;69869;48.036;15.780;2023-10-08T00:48:48;2.30;;;1.95;;
80539;SDS011;69869;48.036;15.780;2023-10-08T00:51:23;3.05;;;2.08;;
80539;SDS011;69869;48.036;15.780;2023-10-08T00:53:55;2.38;;;1.88;;
80539;SDS011;69869;48.036;15.780;2023-10-08T00:56:32;2.47;;;1.90;;
80539;SDS011;69869;48.036;15.780;2023-10-08T00:59:12;2.60;;;2.10;;
80539;SDS011;69869;48.036;15.780;2023-10-08T01:01:39;2.50;;;1.80;;
80539;SDS011;69869;48.036;15.780;2023-10-08T01:04:05;10.90;;;2.15;;
80539;SDS011;69869;48.036;15.780;2023-10-08T01:06:37;8.00;;;2.40;;
80539;SDS011;69869;48.036;15.780;2023-10-08T01:09:04;4.35;;;1.90;;
80539;SDS011;69869;48.036;15.780;2023-10-08T01:11:43;4.72;;;2.03;;
80539;SDS011;69869;48.036;15.780;2023-10-08T01:14:16;4.22;;;2.00;;
80539;SDS011;69869;48.036;15.780;2023-10-08T01:16:49;3.35;;;2.00;;
80539;SDS011;69869;48.036;15.780;2023-10-08T01:19:18;4.22;;;2.08;;
80539;SDS011;69869;48.036;15.780;2023-10-08T01:21:47;6.40;;;1.95;;
80539;SDS011;69869;48.036;15.780;2023-10-08T01:24:13;2.78;;;1.80;;
80539;SDS011;69869;48.036;15.780;2023-10-08T01:26:42;3.28;;;1.60;;
80539;SDS011;69869;48.036;15.780;2023-10-08T01:29:08;2.72;;;2.10;;
80539;SDS011;69869;48.036;15.780;2023-10-08T01:31:43;2.13;;;1.65;;
80539;SDS011;69869;48.036;15.780;2023-10-08T01:34:20;2.72;;;1.65;;
80539;SDS011;69869;48.036;15.780;2023-10-08T01:36:51;1.95;;;1.70;;
80539;SDS011;69869;48.036;15.780;2023-10-08T01:39:17;4.28;;;2.13;;
80539;SDS011;69869;48.036;15.780;2023-10-08T01:41:43;2.00;;;1.80;;
80539;SDS011;69869;48.036;15.780;2023-10-08T01:44:10;2.65;;;2.00;;
80539;SDS011;69869;48.036;15.780;2023-10-08T01:46:35;2.20;;;1.80;;
80539;SDS011;69869;48.036;15.780;2023-10-08T01:49:02;3.38;;;2.15;;
80539;SDS011;69869;48.036;15.780;2023-10-08T01:51:38;3.00;;;2.08;;
80539;SDS011;69869;48.036;15.780;2023-10-08T01:54:09;2.92;;;2.00;;
80539;SDS011;69869;48.036;15.780;2023-10-08T01:56:39;3.38;;;1.80;;
80539;SDS011;69869;48.036;15.780;2023-10-08T01:59:09;2.70;;;1.90;;
80539;SDS011;69869;48.036;15.780;2023-10-08T02:01:36;5.40;;;2.00;;
80539;SDS011;69869;48.036;15.780;2023-10-08T02:04:03;3.20;;;2.10;;
80539;SDS011;69869;48.036;15.780;2023-10-08T02:06:32;8.07;;;1.90;;
80539;SDS011;69869;48.036;15.780;2023-10-08T02:08:58;3.03;;;1.98;;
80539;SDS011;69869;48.036;15.780;2023-10-08T02:11:24;4.00;;;2.00;;
80539;SDS011;69869;48.036;15.780;2023-10-08T02:13:52;2.00;;;1.80;;
80539;SDS011;69869;48.036;15.780;2023-10-08T02:16:18;8.02;;;2.35;;
80539;SDS011;69869;48.036;15.780;2023-10-08T02:18:44;3.38;;;2.08;;
80539;SDS011;69869;48.036;15.780;2023-10-08T02:21:11;4.90;;;2.10;;
80539;SDS011;69869;48.036;15.780;2023-10-08T02:23:36;3.22;;;1.90;;
80539;SDS011;69869;48.036;15.780;2023-10-08T02:26:02;2.58;;;1.95;;
80539;SDS011;69869;48.036;15.780;2023-10-08T02:28:28;3.15;;;1.90;;
80539;SDS011;69869;48.036;15.780;2023-10-08T02:30:53;2.85;;;1.95;;
80539;SDS011;69869;48.036;15.780;2023-10-08T02:33:19;2.30;;;1.85;;
80539;SDS011;69869;48.036;15.780;2023-10-08T02:35:46;2.80;;;2.10;;
80539;SDS011;69869;48.036;15.780;2023-10-08T02:38:12;2.30;;;1.75;;
80539;SDS011;69869;48.036;15.780;2023-10-08T02:40:41;2.17;;;1.83;;
80539;SDS011;69869;48.036;15.780;2023-10-08T02:43:11;3.65;;;1.90;;
80539;SDS011;69869;48.036;15.780;2023-10-08T02:45:39;3.17;;;1.88;;
80539;SDS011;69869;48.036;15.780;2023-10-08T02:48:06;2.10;;;1.80;;
80539;SDS011;69869;48.036;15.780;2023-10-08T02:50:37;1.75;;;1.63;;
80539;SDS011;69869;48.036;15.780;2023-10-08T02:53:06;2.05;;;1.70;;
80539;SDS011;69869;48.036;15.780;2023-10-08T02:55:36;3.83;;;1.75;;
80539;SDS011;69869;48.036;15.780;2023-10-08T02:58:12;2.42;;;1.83;;
80539;SDS011;69869;48.036;15.780;2023-10-08T03:00:44;2.90;;;1.70;;
80539;SDS011;69869;48.036;15.780;2023-10-08T03:03:14;2.60;;;2.00;;
80539;SDS011;69869;48.036;15.780;2023-10-08T03:05:44;2.35;;;1.90;;
80539;SDS011;69869;48.036;15.780;2023-10-08T03:08:11;2.35;;;1.95;;
80539;SDS011;69869;48.036;15.780;2023-10-08T03:10:40;3.05;;;2.10;;
80539;SDS011;69869;48.036;15.780;2023-10-08T03:13:06;3.55;;;1.73;;
80539;SDS011;69869;48.036;15.780;2023-10-08T03:15:35;2.13;;;1.92;;
80539;SDS011;69869;48.036;15.780;2023-10-08T03:18:19;2.55;;;1.90;;
80539;SDS011;69869;48.036;15.780;2023-10-08T03:20:46;2.75;;;1.90;;
80539;SDS011;69869;48.036;15.780;2023-10-08T03:23:14;2.15;;;1.80;;
80539;SDS011;69869;48.036;15.780;2023-10-08T03:25:57;2.10;;;1.80;;
80539;SDS011;69869;48.036;15.780;2023-10-08T03:28:57;3.95;;;1.85;;
80539;SDS011;69869;48.036;15.780;2023-10-08T03:31:24;2.65;;;2.00;;
80539;SDS011;69869;48.036;15.780;2023-10-08T03:34:09;2.15;;;1.75;;
80539;SDS011;69869;48.036;15.780;2023-10-08T03:36:39;4.70;;;1.80;;
80539;SDS011;69869;48.036;15.780;2023-10-08T03:39:15;3.13;;;1.83;;
80539;SDS011;69869;48.036;15.780;2023-10-08T03:41:43;2.55;;;1.85;;
80539;SDS011;69869;48.036;15.780;2023-10-08T03:44:28;5.90;;;1.80;;
80539;SDS011;69869;48.036;15.780;2023-10-08T03:46:54;2.53;;;1.63;;
80539;SDS011;69869;48.036;15.780;2023-10-08T03:49:22;3.10;;;2.20;;
80539;SDS011;69869;48.036;15.780;2023-10-08T03:51:48;2.38;;;1.75;;
80539;SDS011;69869;48.036;15.780;2023-10-08T03:54:17;1.80;;;1.65;;
80539;SDS011;69869;48.036;15.780;2023-10-08T03:56:54;2.70;;;1.75;;
80539;SDS011;69869;48.036;15.780;2023-10-08T03:59:21;1.85;;;1.60;;
80539;SDS011;69869;48.036;15.780;2023-10-08T04:01:58;2.50;;;1.70;;
80539;SDS011;69869;48.036;15.780;2023-10-08T04:04:34;2.33;;;2.05;;
80539;SDS011;69869;48.036;15.780;2023-10-08T04:07:18;3.63;;;2.08;;
80539;SDS011;69869;48.036;15.780;2023-10-08T04:10:04;3.13;;;1.98;;
80539;SDS011;69869;48.036;15.780;2023-10-08T04:12:30;2.42;;;2.10;;
80539;SDS011;69869;48.036;15.780;2023-10-08T04:15:00;3.70;;;1.75;;
80539;SDS011;69869;48.036;15.780;2023-10-08T04:17:26;2.03;;;1.80;;
80539;SDS011;69869;48.036;15.780;2023-10-08T04:19:52;3.92;;;2.00;;
80539;SDS011;69869;48.036;15.780;2023-10-08T04:22:17;4.70;;;1.75;;
80539;SDS011;69869;48.036;15.780;2023-10-08T04:24:44;3.00;;;1.98;;
80539;SDS011;69869;48.036;15.780;2023-10-08T04:27:09;2.90;;;1.98;;
80539;SDS011;69869;48.036;15.780;2023-10-08T04:29:35;2.92;;;1.70;;
80539;SDS011;69869;48.036;15.780;2023-10-08T04:32:04;2.40;;;1.83;;
80539;SDS011;69869;48.036;15.780;2023-10-08T04:34:33;2.40;;;1.80;;
80539;SDS011;69869;48.036;15.780;2023-10-08T04:37:00;2.40;;;1.65;;
80539;SDS011;69869;48.036;15.780;2023-10-08T04:39:36;1.70;;;1.50;;
80539;SDS011;69869;48.036;15.780;2023-10-08T04:42:04;2.10;;;1.80;;
80539;SDS011;69869;48.036;15.780;2023-10-08T04:44:38;2.60;;;1.85;;
80539;SDS011;69869;48.036;15.780;2023-10-08T04:47:06;2.65;;;1.80;;
80539;SDS011;69869;48.036;15.780;2023-10-08T04:49:52;2.13;;;1.58;;
80539;SDS011;69869;48.036;15.780;2023-10-08T04:52:18;2.75;;;1.90;;
80539;SDS011;69869;48.036;15.780;2023-10-08T04:54:45;2.10;;;1.80;;
80539;SDS011;69869;48.036;15.780;2023-10-08T04:57:17;2.35;;;1.90;;
80539;SDS011;69869;48.036;15.780;2023-10-08T04:59:44;2.70;;;1.70;;
80539;SDS011;69869;48.036;15.780;2023-10-08T05:02:11;3.47;;;1.70;;
80539;SDS011;69869;48.036;15.780;2023-10-08T05:04:44;3.10;;;1.73;;
80539;SDS011;69869;48.036;15.780;2023-10-08T05:07:12;2.47;;;1.80;;
80539;SDS011;69869;48.036;15.780;2023-10-08T05:09:57;2.10;;;1.80;;
80539;SDS011;69869;48.036;15.780;2023-10-08T05:12:28;3.13;;;1.83;;
80539;SDS011;69869;48.036;15.780;2023-10-08T05:14:57;3.05;;;1.67;;
80539;SDS011;69869;48.036;15.780;2023-10-08T05:17:41;2.30;;;1.98;;
80539;SDS011;69869;48.036;15.780;2023-10-08T05:20:16;2.75;;;1.90;;
80539;SDS011;69869;48.036;15.780;2023-10-08T05:23:05;2.50;;;1.65;;
80539;SDS011;69869;48.036;15.780;2023-10-08T05:25:50;2.40;;;1.67;;
80539;SDS011;69869;48.036;15.780;2023-10-08T05:28:25;2.45;;;1.80;;
80539;SDS011;69869;48.036;15.780;2023-10-08T05:30:51;1.75;;;1.52;;
80539;SDS011;69869;48.036;15.780;2023-10-08T05:33:45;1.98;;;1.60;;
80539;SDS011;69869;48.036;15.780;2023-10-08T05:36:29;2.22;;;1.75;;
80539;SDS011;69869;48.036;15.780;2023-10-08T05:39:15;2.47;;;1.90;;
80539;SDS011;69869;48.036;15.780;2023-10-08T05:42:05;2.88;;;1.90;;
80539;SDS011;69869;48.036;15.780;2023-10-08T05:44:56;2.00;;;1.67;;
80539;SDS011;69869;48.036;15.780;2023-10-08T05:47:34;2.40;;;1.80;;
80539;SDS011;69869;48.036;15.780;2023-10-08T05:50:00;2.58;;;1.95;;
80539;SDS011;69869;48.036;15.780;2023-10-08T05:52:42;2.40;;;1.88;;
80539;SDS011;69869;48.036;15.780;2023-10-08T05:55:24;2.58;;;1.80;;
80539;SDS011;69869;48.036;15.780;2023-10-08T05:57:50;2.25;;;1.80;;
80539;SDS011;69869;48.036;15.780;2023-10-08T06:00:38;2.17;;;1.60;;
80539;SDS011;69869;48.036;15.780;2023-10-08T06:03:16;2.20;;;1.65;;
80539;SDS011;69869;48.036;15.780;2023-10-08T06:06:01;1.90;;;1.70;;
80539;SDS011;69869;48.036;15.780;2023-10-08T06:08:49;2.50;;;1.60;;
80539;SDS011;69869;48.036;15.780;2023-10-08T06:11:37;1.40;;;1.30;;
80539;SDS011;69869;48.036;15.780;2023-10-08T06:14:09;2.08;;;1.60;;
80539;SDS011;69869;48.036;15.780;2023-10-08T06:16:39;2.05;;;1.70;;
80539;SDS011;69869;48.036;15.780;2023-10-08T06:19:10;2.08;;;1.77;;
80539;SDS011;69869;48.036;15.780;2023-10-08T06:21:37;2.40;;;1.75;;
80539;SDS011;69869;48.036;15.780;2023-10-08T06:24:09;2.38;;;1.70;;
80539;SDS011;69869;48.036;15.780;2023-10-08T06:26:38;2.05;;;1.65;;
80539;SDS011;69869;48.036;15.780;2023-10-08T06:29:10;2.22;;;1.80;;
80539;SDS011;69869;48.036;15.780;2023-10-08T06:31:55;2.50;;;1.80;;
80539;SDS011;69869;48.036;15.780;2023-10-08T06:34:22;2.55;;;1.80;;
80539;SDS011;69869;48.036;15.780;2023-10-08T06:36:53;2.58;;;1.80;;
80539;SDS011;69869;48.036;15.780;2023-10-08T06:39:21;2.03;;;1.60;;
80539;SDS011;69869;48.036;15.780;2023-10-08T06:41:58;1.75;;;1.60;;
80539;SDS011;69869;48.036;15.780;2023-10-08T06:44:24;2.67;;;1.80;;
80539;SDS011;69869;48.036;15.780;2023-10-08T06:46:51;2.25;;;1.77;;
80539;SDS011;69869;48.036;15.780;2023-10-08T06:49:23;2.15;;;1.90;;
80539;SDS011;69869;48.036;15.780;2023-10-08T06:51:50;2.00;;;1.67;;
80539;SDS011;69869;48.036;15.780;2023-10-08T06:54:17;2.17;;;1.85;;
80539;SDS011;69869;48.036;15.780;2023-10-08T06:56:43;3.45;;;1.83;;
80539;SDS011;69869;48.036;15.780;2023-10-08T06:59:16;3.63;;;1.75;;
80539;SDS011;69869;48.036;15.780;2023-10-08T07:01:42;2.90;;;1.70;;
80539;SDS011;69869;48.036;15.780;2023-10-08T07:04:11;2.75;;;1.95;;
80539;SDS011;69869;48.036;15.780;2023-10-08T07:06:38;2.20;;;1.88;;
80539;SDS011;69869;48.036;15.780;2023-10-08T07:09:17;2.38;;;1.50;;
80539;SDS011;69869;48.036;15.780;2023-10-08T07:11:52;2.22;;;1.80;;
80539;SDS011;69869;48.036;15.780;2023-10-08T07:14:22;2.38;;;1.80;;
80539;SDS011;69869;48.036;15.780;2023-10-08T07:16:51;3.15;;;1.73;;
80539;SDS011;69869;48.036;15.780;2023-10-08T07:19:23;2.45;;;1.80;;
80539;SDS011;69869;48.036;15.780;2023-10-08T07:21:58;3.05;;;1.90;;
80539;SDS011;69869;48.036;15.780;2023-10-08T07:24:28;3.67;;;2.10;;
80539;SDS011;69869;48.036;15.780;2023-10-08T07:26:56;2.97;;;1.70;;
80539;SDS011;69869;48.036;15.780;2023-10-08T07:29:21;2.38;;;1.85;;
80539;SDS011;69869;48.036;15.780;2023-10-08T07:31:47;3.78;;;1.83;;
80539;SDS011;69869;48.036;15.780;2023-10-08T07:34:18;2.53;;;1.95;;
80539;SDS011;69869;48.036;15.780;2023-10-08T07:36:50;3.25;;;1.77;;
80539;SDS011;69869;48.036;15.780;2023-10-08T07:39:17;3.00;;;1.83;;
80539;SDS011;69869;48.036;15.780;2023-10-08T07:41:57;3.53;;;1.80;;
80539;SDS011;69869;48.036;15.780;2023-10-08T07:44:25;2.95;;;2.00;;
80539;SDS011;69869;48.036;15.780;2023-10-08T07:46:55;3.80;;;1.73;;
80539;SDS011;69869;48.036;15.780;2023-10-08T07:49:21;3.03;;;1.90;;
80539;SDS011;69869;48.036;15.780;2023-10-08T07:51:48;3.13;;;2.13;;
80539;SDS011;69869;48.036;15.780;2023-10-08T07:54:23;4.63;;;2.13;;
80539;SDS011;69869;48.036;15.780;2023-10-08T07:56:49;4.03;;;1.80;;
80539;SDS011;69869;48.036;15.780;2023-10-08T07:59:25;2.90;;;1.90;;
80539;SDS011;69869;48.036;15.780;2023-10-08T08:01:50;4.43;;;2.10;;
80539;SDS011;69869;48.036;15.780;2023-10-08T08:04:17;3.30;;;2.00;;
80539;SDS011;69869;48.036;15.780;2023-10-08T08:06:49;3.25;;;1.95;;
80539;SDS011;69869;48.036;15.780;2023-10-08T08:09:18;3.65;;;2.00;;
80539;SDS011;69869;48.036;15.780;2023-10-08T08:11:48;3.55;;;2.13;;
80539;SDS011;69869;48.036;15.780;2023-10-08T08:14:15;3.35;;;2.00;;
80539;SDS011;69869;48.036;15.780;2023-10-08T08:16:49;3.35;;;2.13;;
80539;SDS011;69869;48.036;15.780;2023-10-08T08:19:16;9.35;;;2.30;;
80539;SDS011;69869;48.036;15.780;2023-10-08T08:21:43;4.20;;;2.05;;
80539;SDS011;69869;48.036;15.780;2023-10-08T08:24:10;5.35;;;2.10;;
80539;SDS011;69869;48.036;15.780;2023-10-08T08:26:37;2.38;;;1.77;;
80539;SDS011;69869;48.036;15.780;2023-10-08T08:29:26;3.78;;;2.20;;
80539;SDS011;69869;48.036;15.780;2023-10-08T08:31:52;3.40;;;2.03;;
80539;SDS011;69869;48.036;15.780;2023-10-08T08:34:18;3.08;;;2.00;;
80539;SDS011;69869;48.036;15.780;2023-10-08T08:36:48;5.15;;;1.90;;
80539;SDS011;69869;48.036;15.780;2023-10-08T08:39:15;3.35;;;2.10;;
80539;SDS011;69869;48.036;15.780;2023-10-08T08:42:01;4.70;;;2.10;;
80539;SDS011;69869;48.036;15.780;2023-10-08T08:44:32;3.70;;;2.30;;
80539;SDS011;69869;48.036;15.780;2023-10-08T08:47:09;4.28;;;2.20;;
80539;SDS011;69869;48.036;15.780;2023-10-08T08:49:42;4.35;;;2.10;;
80539;SDS011;69869;48.036;15.780;2023-10-08T08:52:10;3.97;;;2.10;;
80539;SDS011;69869;48.036;15.780;2023-10-08T08:54:36;3.05;;;2.03;;
80539;SDS011;69869;48.036;15.780;2023-10-08T08:57:03;3.35;;;1.92;;
80539;SDS011;69869;48.036;15.780;2023-10-08T08:59:30;4.05;;;2.00;;
80539;SDS011;69869;48.036;15.780;2023-10-08T09:01:56;4.88;;;2.40;;
80539;SDS011;69869;48.036;15.780;2023-10-08T09:04:33;3.33;;;2.03;;
80539;SDS011;69869;48.036;15.780;2023-10-08T09:07:02;3.17;;;1.92;;
80539;SDS011;69869;48.036;15.780;2023-10-08T09:09:32;3.65;;;1.90;;
80539;SDS011;69869;48.036;15.780;2023-10-08T09:11:59;3.00;;;2.17;;
80539;SDS011;69869;48.036;15.780;2023-10-08T09:14:25;4.18;;;2.10;;
80539;SDS011;69869;48.036;15.780;2023-10-08T09:16:52;3.17;;;1.98;;
80539;SDS011;69869;48.036;15.780;2023-10-08T09:19:21;2.90;;;2.10;;
80539;SDS011;69869;48.036;15.780;2023-10-08T09:24:36;2.78;;;2.00;;
80539;SDS011;69869;48.036;15.780;2023-10-08T09:27:07;4.55;;;2.22;;
80539;SDS011;69869;48.036;15.780;2023-10-08T09:29:34;5.05;;;2.20;;
80539;SDS011;69869;48.036;15.780;2023-10-08T09:32:05;3.35;;;2.00;;
80539;SDS011;69869;48.036;15.780;2023-10-08T09:34:32;3.45;;;1.90;;
80539;SDS011;69869;48.036;15.780;2023-10-08T09:36:59;4.28;;;2.10;;
80539;SDS011;69869;48.036;15.780;2023-10-08T09:39:28;4.93;;;2.08;;
80539;SDS011;69869;48.036;15.780;2023-10-08T09:41:58;4.53;;;1.90;;
80539;SDS011;69869;48.036;15.780;2023-10-08T09:44:28;3.97;;;2.08;;
80539;SDS011;69869;48.036;15.780;2023-10-08T09:47:04;3.60;;;2.10;;
80539;SDS011;69869;48.036;15.780;2023-10-08T09:52:19;3.10;;;1.80;;
80539;SDS011;69869;48.036;15.780;2023-10-08T09:54:53;2.65;;;1.90;;
80539;SDS011;69869;48.036;15.780;2023-10-08T09:57:35;3.17;;;2.10;;
80539;SDS011;69869;48.036;15.780;2023-10-08T10:00:01;3.65;;;2.10;;
80539;SDS011;69869;48.036;15.780;2023-10-08T10:02:30;2.75;;;2.00;;
80539;SDS011;69869;48.036;15.780;2023-10-08T10:04:57;3.50;;;1.80;;
80539;SDS011;69869;48.036;15.780;2023-10-08T10:07:24;3.92;;;2.22;;
80539;SDS011;69869;48.036;15.780;2023-10-08T10:09:51;3.63;;;1.90;;
80539;SDS011;69869;48.036;15.780;2023-10-08T10:12:20;3.40;;;1.98;;
80539;SDS011;69869;48.036;15.780;2023-10-08T10:14:51;3.10;;;2.00;;
80539;SDS011;69869;48.036;15.780;2023-10-08T10:17:20;3.28;;;2.08;;
80539;SDS011;69869;48.036;15.780;2023-10-08T10:19:57;5.68;;;2.10;;
80539;SDS011;69869;48.036;15.780;2023-10-08T10:22:30;2.50;;;1.90;;
80539;SDS011;69869;48.036;15.780;2023-10-08T10:24:58;2.70;;;1.83;;
80539;SDS011;69869;48.036;15.780;2023-10-08T10:27:28;2.83;;;1.95;;
80539;SDS011;69869;48.036;15.780;2023-10-08T10:30:01;3.97;;;1.90;;
80539;SDS011;69869;48.036;15.780;2023-10-08T10:32:33;3.13;;;2.00;;
80539;SDS011;69869;48.036;15.780;2023-10-08T10:35:00;2.30;;;1.60;;
80539;SDS011;69869;48.036;15.780;2023-10-08T10:37:28;3.75;;;2.20;;
80539;SDS011;69869;48.036;15.780;2023-10-08T10:40:06;3.70;;;2.08;;
80539;SDS011;69869;48.036;15.780;2023-10-08T10:42:37;4.00;;;2.10;;
80539;SDS011;69869;48.036;15.780;2023-10-08T10:45:16;3.90;;;1.93;;
80539;SDS011;69869;48.036;15.780;2023-10-08T10:48:01;3.42;;;2.22;;
80539;SDS011;69869;48.036;15.780;2023-10-08T10:50:40;2.25;;;1.90;;
80539;SDS011;69869;48.036;15.780;2023-10-08T10:53:25;2.75;;;1.90;;
80539;SDS011;69869;48.036;15.780;2023-10-08T10:55:52;2.33;;;1.98;;
80539;SDS011;69869;48.036;15.780;2023-10-08T10:58:28;2.63;;;1.85;;
80539;SDS011;69869;48.036;15.780;2023-10-08T11:01:03;4.05;;;2.00;;
80539;SDS011;69869;48.036;15.780;2023-10-08T11:03:46;2.83;;;1.95;;
80539;SDS011;69869;48.036;15.780;2023-10-08T11:06:16;2.95;;;2.10;;
80539;SDS011;69869;48.036;15.780;2023-10-08T11:08:48;3.20;;;2.00;;
80539;SDS011;69869;48.036;15.780;2023-10-08T11:11:18;2.72;;;1.90;;
80539;SDS011;69869;48.036;15.780;2023-10-08T11:13:44;2.83;;;2.08;;
80539;SDS011;69869;48.036;15.780;2023-10-08T11:16:22;3.10;;;2.00;;
80539;SDS011;69869;48.036;15.780;2023-10-08T11:18:48;3.25;;;2.00;;
80539;SDS011;69869;48.036;15.780;2023-10-08T11:21:16;2.50;;;2.00;;
80539;SDS011;69869;48.036;15.780;2023-10-08T11:23:48;4.30;;;1.90;;
80539;SDS011;69869;48.036;15.780;2023-10-08T11:26:36;2.58;;;2.00;;
80539;SDS011;69869;48.036;15.780;2023-10-08T11:29:19;3.28;;;1.90;;
80539;SDS011;69869;48.036;15.780;2023-10-08T11:31:50;1.95;;;1.60;;
80539;SDS011;69869;48.036;15.780;2023-10-08T11:34:16;2.10;;;1.73;;
80539;SDS011;69869;48.036;15.780;2023-10-08T11:36:52;2.70;;;2.10;;
80539;SDS011;69869;48.036;15.780;2023-10-08T11:39:18;3.72;;;1.75;;
80539;SDS011;69869;48.036;15.780;2023-10-08T11:41:59;2.08;;;1.70;;
80539;SDS011;69869;48.036;15.780;2023-10-08T11:44:32;2.17;;;1.55;;
80539;SDS011;69869;48.036;15.780;2023-10-08T11:47:02;2.70;;;1.75;;
80539;SDS011;69869;48.036;15.780;2023-10-08T11:49:40;2.83;;;1.67;;
80539;SDS011;69869;48.036;15.780;2023-10-08T11:52:13;1.83;;;1.50;;
80539;SDS011;69869;48.036;15.780;2023-10-08T11:54:41;2.08;;;1.85;;
80539;SDS011;69869;48.036;15.780;2023-10-08T11:57:07;1.95;;;1.75;;
80539;SDS011;69869;48.036;15.780;2023-10-08T11:59:34;2.10;;;1.63;;
80539;SDS011;69869;48.036;15.780;2023-10-08T12:02:04;2.10;;;1.70;;
80539;SDS011;69869;48.036;15.780;2023-10-08T12:04:33;2.15;;;1.60;;
80539;SDS011;69869;48.036;15.780;2023-10-08T12:06:59;1.70;;;1.60;;
80539;SDS011;69869;48.036;15.780;2023-10-08T12:09:27;1.63;;;1.50;;
80539;SDS011;69869;48.036;15.780;2023-10-08T12:11:53;2.17;;;1.50;;
80539;SDS011;69869;48.036;15.780;2023-10-08T12:14:21;1.60;;;1.40;;
80539;SDS011;69869;48.036;15.780;2023-10-08T12:16:51;1.60;;;1.40;;
80539;SDS011;69869;48.036;15.780;2023-10-08T12:19:17;1.67;;;1.40;;
80539;SDS011;69869;48.036;15.780;2023-10-08T12:21:43;1.60;;;1.50;;
80539;SDS011;69869;48.036;15.780;2023-10-08T12:24:12;1.50;;;1.30;;
80539;SDS011;69869;48.036;15.780;2023-10-08T12:26:39;1.73;;;1.40;;
80539;SDS011;69869;48.036;15.780;2023-10-08T12:29:11;1.50;;;1.40;;
80539;SDS011;69869;48.036;15.780;2023-10-08T12:31:39;2.03;;;1.58;;
80539;SDS011;69869;48.036;15.780;2023-10-08T12:34:05;1.83;;;1.50;;
80539;SDS011;69869;48.036;15.780;2023-10-08T12:36:31;1.67;;;1.48;;
80539;SDS011;69869;48.036;15.780;2023-10-08T12:39:01;1.30;;;1.20;;
80539;SDS011;69869;48.036;15.780;2023-10-08T12:41:34;1.63;;;1.33;;
80539;SDS011;69869;48.036;15.780;2023-10-08T12:44:03;1.35;;;1.25;;
80539;SDS011;69869;48.036;15.780;2023-10-08T12:46:32;1.92;;;1.42;;
80539;SDS011;69869;48.036;15.780;2023-10-08T12:48:59;1.42;;;1.30;;
80539;SDS011;69869;48.036;15.780;2023-10-08T12:51:26;1.35;;;1.25;;
80539;SDS011;69869;48.036;15.780;2023-10-08T12:53:57;1.20;;;1.10;;
80539;SDS011;69869;48.036;15.780;2023-10-08T12:56:31;1.50;;;1.27;;
80539;SDS011;69869;48.036;15.780;2023-10-08T12:59:01;1.27;;;1.10;;
80539;SDS011;69869;48.036;15.780;2023-10-08T13:01:36;1.38;;;1.27;;
80539;SDS011;69869;48.036;15.780;2023-10-08T13:04:06;1.30;;;1.20;;
80539;SDS011;69869;48.036;15.780;2023-10-08T13:06:40;1.42;;;1.25;;
80539;SDS011;69869;48.036;15.780;2023-10-08T13:09:10;1.20;;;1.10;;
80539;SDS011;69869;48.036;15.780;2023-10-08T13:11:39;1.00;;;1.00;;
80539;SDS011;69869;48.036;15.780;2023-10-08T13:14:05;2.10;;;1.08;;
80539;SDS011;69869;48.036;15.780;2023-10-08T13:16:31;1.20;;;1.10;;
80539;SDS011;69869;48.036;15.780;2023-10-08T13:18:59;1.25;;;1.10;;
80539;SDS011;69869;48.036;15.780;2023-10-08T13:21:26;1.33;;;1.20;;
80539;SDS011;69869;48.036;15.780;2023-10-08T13:23:54;2.05;;;1.00;;
80539;SDS011;69869;48.036;15.780;2023-10-08T13:26:24;1.38;;;0.95;;
80539;SDS011;69869;48.036;15.780;2023-10-08T13:28:56;1.60;;;1.10;;
80539;SDS011;69869;48.036;15.780;2023-10-08T13:31:28;1.08;;;0.90;;
80539;SDS011;69869;48.036;15.780;2023-10-08T13:33:54;1.25;;;1.15;;
80539;SDS011;69869;48.036;15.780;2023-10-08T13:36:27;1.10;;;1.00;;
80539;SDS011;69869;48.036;15.780;2023-10-08T13:38:53;1.10;;;1.00;;
80539;SDS011;69869;48.036;15.780;2023-10-08T13:41:20;1.00;;;1.00;;
80539;SDS011;69869;48.036;15.780;2023-10-08T13:43:47;1.20;;;1.10;;
80539;SDS011;69869;48.036;15.780;2023-10-08T13:46:14;1.10;;;1.00;;
80539;SDS011;69869;48.036;15.780;2023-10-08T13:48:42;1.30;;;1.20;;
80539;SDS011;69869;48.036;15.780;2023-10-08T13:53:40;0.93;;;0.93;;
80539;SDS011;69869;48.036;15.780;2023-10-08T13:56:10;1.10;;;1.00;;
80539;SDS011;69869;48.036;15.780;2023-10-08T13:58:37;0.82;;;0.82;;
80539;SDS011;69869;48.036;15.780;2023-10-08T14:01:10;1.05;;;1.05;;
80539;SDS011;69869;48.036;15.780;2023-10-08T14:03:46;1.20;;;1.10;;
80539;SDS011;69869;48.036;15.780;2023-10-08T14:06:13;1.08;;;1.00;;
80539;SDS011;69869;48.036;15.780;2023-10-08T14:08:42;1.02;;;1.00;;
80539;SDS011;69869;48.036;15.780;2023-10-08T14:11:31;1.30;;;1.20;;
80539;SDS011;69869;48.036;15.780;2023-10-08T14:13:58;1.35;;;1.25;;
80539;SDS011;69869;48.036;15.780;2023-10-08T14:16:33;1.20;;;1.10;;
80539;SDS011;69869;48.036;15.780;2023-10-08T14:18:59;1.10;;;1.00;;
80539;SDS011;69869;48.036;15.780;2023-10-08T14:21:29;1.30;;;1.20;;
80539;SDS011;69869;48.036;15.780;2023-10-08T14:23:56;1.42;;;1.13;;
80539;SDS011;69869;48.036;15.780;2023-10-08T14:26:27;1.20;;;1.08;;
80539;SDS011;69869;48.036;15.780;2023-10-08T14:29:01;0.85;;;0.85;;
80539;SDS011;69869;48.036;15.780;2023-10-08T14:31:33;1.20;;;1.10;;
80539;SDS011;69869;48.036;15.780;2023-10-08T14:34:03;1.17;;;1.02;;
80539;SDS011;69869;48.036;15.780;2023-10-08T14:36:44;1.00;;;1.00;;
80539;SDS011;69869;48.036;15.780;2023-10-08T14:42:17;1.10;;;1.00;;
80539;SDS011;69869;48.036;15.780;2023-10-08T14:45:02;0.80;;;0.80;;
80539;SDS011;69869;48.036;15.780;2023-10-08T14:47:28;1.10;;;0.90;;
80539;SDS011;69869;48.036;15.780;2023-10-08T14:49:54;0.93;;;0.85;;
80539;SDS011;69869;48.036;15.780;2023-10-08T14:52:20;0.70;;;0.70;;
80539;SDS011;69869;48.036;15.780;2023-10-08T14:54:46;0.88;;;0.88;;
80539;SDS011;69869;48.036;15.780;2023-10-08T14:57:12;0.90;;;0.90;;
80539;SDS011;69869;48.036;15.780;2023-10-08T14:59:39;0.90;;;0.90;;
80539;SDS011;69869;48.036;15.780;2023-10-08T15:02:06;1.02;;;1.00;;
80539;SDS011;69869;48.036;15.780;2023-10-08T15:04:32;1.20;;;1.10;;
80539;SDS011;69869;48.036;15.780;2023-10-08T15:07:00;1.08;;;1.00;;